createdAt,value
2019-04-19T00:01:34.287Z,6.69
2019-04-19T00:04:12.187Z,6.54
2019-04-19T00:06:43.379Z,6.30
2019-04-19T00:09:28.526Z,6.20
2019-04-19T00:11:59.121Z,6.19
2019-04-19T00:14:19.418Z,6.18
2019-04-19T00:16:51.088Z,6.16
2019-04-19T00:19:39.945Z,6.19
2019-04-19T00:22:14.262Z,6.22
2019-04-19T00:24:26.937Z,6.18
2019-04-19T00:26:57.529Z,6.22
2019-04-19T00:29:39.611Z,6.23
2019-04-19T00:32:16.960Z,6.17
2019-04-19T00:34:33.681Z,6.19
2019-04-19T00:37:05.738Z,6.12
2019-04-19T00:40:05.001Z,6.10
2019-04-19T00:43:01.720Z,6.09
2019-04-19T00:46:00.870Z,6.13
2019-04-19T00:48:31.791Z,6.11
2019-04-19T00:51:02.310Z,6.05
2019-04-19T00:53:28.317Z,6.05
2019-04-19T00:56:00.815Z,6.02
2019-04-19T00:58:29.782Z,5.98
2019-04-19T01:01:05.977Z,6.02
2019-04-19T01:03:38.560Z,5.98
2019-04-19T01:06:08.393Z,5.95
2019-04-19T01:08:42.028Z,5.91
2019-04-19T01:11:21.177Z,5.97
2019-04-19T01:14:13.845Z,5.95
2019-04-19T01:16:51.683Z,5.92
2019-04-19T01:19:09.300Z,5.95
2019-04-19T01:21:37.051Z,6.00
2019-04-19T01:24:08.433Z,5.99
2019-04-19T01:26:45.942Z,6.01
2019-04-19T01:29:16.813Z,5.98
2019-04-19T01:31:49.488Z,6.00
2019-04-19T01:34:23.995Z,6.06
2019-04-19T01:36:52.704Z,6.05
2019-04-19T01:39:36.317Z,6.07
2019-04-19T01:42:09.720Z,6.05
2019-04-19T01:44:54.494Z,6.08
2019-04-19T01:48:01.947Z,6.10
2019-04-19T01:50:52.840Z,6.15
2019-04-19T01:53:25.361Z,6.08
2019-04-19T01:55:41.528Z,6.05
2019-04-19T01:58:16.181Z,6.09
2019-04-19T02:00:48.979Z,6.06
2019-04-19T02:03:16.671Z,6.04
2019-04-19T02:05:53.271Z,6.01
2019-04-19T02:08:21.071Z,5.98
2019-04-19T02:11:39.710Z,5.98
2019-04-19T02:14:08.678Z,5.98
2019-04-19T02:16:33.321Z,5.91
2019-04-19T02:19:09.746Z,5.91
2019-04-19T02:21:42.324Z,5.85
2019-04-19T02:24:10.629Z,5.88
2019-04-19T02:26:49.993Z,5.81
2019-04-19T02:29:20.238Z,5.77
2019-04-19T02:32:15.445Z,5.75
2019-04-19T02:34:47.228Z,5.74
2019-04-19T02:39:56.198Z,5.84
2019-04-19T02:42:32.469Z,5.78
2019-04-19T02:45:03.753Z,5.80
2019-04-19T02:52:52.446Z,5.90
2019-04-19T02:58:04.231Z,6.03
2019-04-19T03:03:24.742Z,6.16
2019-04-19T03:05:47.494Z,6.28
2019-04-19T03:08:04.279Z,6.39
2019-04-19T03:10:49.949Z,6.45
2019-04-19T03:13:21.643Z,6.49
2019-04-19T03:15:54.326Z,6.49
2019-04-19T03:18:42.646Z,6.56
2019-04-19T03:21:00.524Z,6.58
2019-04-19T03:23:30.685Z,6.59
2019-04-19T03:26:04.607Z,6.62
2019-04-19T03:28:34.109Z,6.63
2019-04-19T03:33:59.552Z,6.60
2019-04-19T03:36:20.141Z,6.55
2019-04-19T03:38:48.766Z,6.55
2019-04-19T03:41:40.635Z,6.68
2019-04-19T03:44:15.955Z,6.69
2019-04-19T03:46:58.098Z,6.81
2019-04-19T03:49:30.835Z,6.93
2019-04-19T03:52:04.351Z,7.07
2019-04-19T03:54:28.537Z,7.17
2019-04-19T03:57:03.115Z,7.22
2019-04-19T03:59:18.554Z,7.68
2019-04-19T04:01:53.323Z,8.92
2019-04-19T04:04:26.543Z,8.92
2019-04-19T04:06:54.897Z,9.38
2019-04-19T04:09:43.440Z,9.72
2019-04-19T04:12:34.651Z,10.06
2019-04-19T04:15:14.568Z,10.40
2019-04-19T04:17:35.701Z,10.80
2019-04-19T04:20:07.425Z,11.25
2019-04-19T04:22:42.181Z,11.57
2019-04-19T04:25:19.784Z,11.70
2019-04-19T04:27:53.120Z,12.07
2019-04-19T04:30:26.253Z,12.66
2019-04-19T04:33:01.351Z,12.76
2019-04-19T04:35:36.249Z,13.06
2019-04-19T04:38:04.963Z,13.23
2019-04-19T04:40:27.658Z,13.59
2019-04-19T04:43:08.695Z,13.67
2019-04-19T04:46:01.874Z,14.13
2019-04-19T04:48:38.573Z,14.25
2019-04-19T04:51:18.407Z,14.53
2019-04-19T04:53:36.324Z,14.64
2019-04-19T04:56:12.545Z,14.79
2019-04-19T04:58:46.973Z,15.11
2019-04-19T05:01:32.616Z,15.40
2019-04-19T05:04:07.385Z,15.37
2019-04-19T05:06:35.338Z,15.65
2019-04-19T05:09:19.804Z,16.03
2019-04-19T05:11:51.125Z,14.95
2019-04-19T05:14:28.709Z,14.65
2019-04-19T05:17:12.354Z,14.30
2019-04-19T05:19:41.636Z,13.74
2019-04-19T05:22:08.572Z,13.17
2019-04-19T05:24:45.188Z,12.92
2019-04-19T05:27:14.796Z,12.62
2019-04-19T05:29:34.440Z,12.29
2019-04-19T05:32:11.658Z,12.27
2019-04-19T05:34:52.463Z,12.47
2019-04-19T05:37:17.547Z,12.97
2019-04-19T05:40:04.765Z,13.92
2019-04-19T05:42:49.522Z,15.24
2019-04-19T05:45:35.403Z,16.59
2019-04-19T05:47:49.372Z,17.61
2019-04-19T05:50:33.216Z,18.04
2019-04-19T05:53:00.185Z,18.85
2019-04-19T05:55:18.922Z,20.07
2019-04-19T05:58:03.335Z,19.81
2019-04-19T06:00:40.930Z,20.41
2019-04-19T06:03:13.467Z,20.97
2019-04-19T06:06:02.596Z,20.90
2019-04-19T06:08:15.331Z,19.91
2019-04-19T06:10:46.487Z,20.18
2019-04-19T06:13:15.136Z,20.84
2019-04-19T06:16:07.606Z,20.90
2019-04-19T06:18:44.068Z,20.37
2019-04-19T06:21:23.422Z,21.53
2019-04-19T06:23:58.084Z,21.64
2019-04-19T06:31:37.069Z,21.82
2019-04-19T06:34:03.666Z,22.32
2019-04-19T06:36:19.261Z,21.47
2019-04-19T06:38:50.704Z,21.00
2019-04-19T06:41:25.003Z,21.43
2019-04-19T06:44:05.121Z,21.01
2019-04-19T06:46:40.943Z,21.53
2019-04-19T06:49:05.089Z,21.12
2019-04-19T06:51:41.918Z,21.27
2019-04-19T06:54:09.113Z,21.39
2019-04-19T06:56:41.330Z,21.38
2019-04-19T06:59:20.097Z,22.49
2019-04-19T07:01:49.750Z,22.60
2019-04-19T07:04:17.023Z,22.51
2019-04-19T07:07:09.460Z,21.57
2019-04-19T07:09:45.121Z,21.46
2019-04-19T07:12:13.254Z,21.25
2019-04-19T07:14:29.482Z,20.62
2019-04-19T07:17:15.452Z,21.16
2019-04-19T07:19:52.927Z,21.57
2019-04-19T07:22:14.440Z,20.35
2019-04-19T07:25:01.438Z,19.67
2019-04-19T07:27:22.415Z,19.13
2019-04-19T07:29:40.602Z,18.31
2019-04-19T07:32:12.567Z,17.10
2019-04-19T07:34:57.054Z,16.85
2019-04-19T07:37:30.338Z,16.60
2019-04-19T07:40:16.323Z,16.17
2019-04-19T07:42:39.824Z,16.07
2019-04-19T07:45:04.924Z,15.72
2019-04-19T07:47:48.927Z,15.62
2019-04-19T07:50:19.748Z,15.53
2019-04-19T07:52:52.985Z,15.46
2019-04-19T07:55:17.818Z,15.16
2019-04-19T07:58:24.245Z,15.34
2019-04-19T08:01:12.142Z,15.47
2019-04-19T08:05:54.966Z,15.51
2019-04-19T08:16:04.695Z,15.74
2019-04-19T08:28:37.794Z,16.14
2019-04-19T08:31:02.551Z,16.03
2019-04-19T08:33:32.037Z,15.83
2019-04-19T08:36:07.414Z,15.81
2019-04-19T08:38:35.646Z,15.81
2019-04-19T08:41:57.309Z,15.96
2019-04-19T08:43:57.284Z,15.99
2019-04-19T08:46:32.539Z,16.05
2019-04-19T08:49:28.451Z,16.10
2019-04-19T08:52:08.403Z,16.20
2019-04-19T08:54:59.279Z,16.22
2019-04-19T08:57:14.779Z,16.47
2019-04-19T09:00:08.154Z,16.73
2019-04-19T09:02:34.536Z,17.00
2019-04-19T09:05:04.283Z,17.00
2019-04-19T09:07:46.905Z,17.02
2019-04-19T09:12:48.261Z,16.20
2019-04-19T09:15:18.127Z,15.87
2019-04-19T09:20:28.041Z,16.19
2019-04-19T09:23:04.848Z,16.13
2019-04-19T09:25:55.051Z,15.84
2019-04-19T09:31:04.467Z,15.86
2019-04-19T09:33:26.306Z,16.42
2019-04-19T09:36:01.260Z,16.60
2019-04-19T09:38:39.180Z,16.85
2019-04-19T09:41:03.036Z,16.91
2019-04-19T09:43:42.513Z,16.66
2019-04-19T09:46:02.029Z,16.44
2019-04-19T09:48:51.758Z,16.84
2019-04-19T09:51:25.541Z,16.50
2019-04-19T09:54:15.736Z,16.39
2019-04-19T09:56:27.108Z,16.20
2019-04-19T09:58:53.981Z,16.57
2019-04-19T10:01:23.198Z,16.02
2019-04-19T10:03:56.673Z,16.18
2019-04-19T10:06:24.655Z,15.95
2019-04-19T10:08:56.100Z,15.91
2019-04-19T10:11:27.353Z,15.93
2019-04-19T10:13:58.377Z,15.39
2019-04-19T10:16:42.686Z,14.60
2019-04-19T10:19:14.609Z,14.10
2019-04-19T10:21:52.161Z,14.10
2019-04-19T10:24:24.252Z,13.97
2019-04-19T10:27:33.237Z,14.23
2019-04-19T10:30:06.129Z,14.45
2019-04-19T10:32:38.503Z,14.06
2019-04-19T10:35:09.499Z,13.59
2019-04-19T10:37:40.187Z,12.84
2019-04-19T10:40:13.538Z,12.94
2019-04-19T10:42:45.181Z,12.72
2019-04-19T10:45:16.357Z,12.55
2019-04-19T10:47:49.371Z,12.63
2019-04-19T10:50:32.678Z,13.16
2019-04-19T10:52:54.423Z,13.26
2019-04-19T10:55:29.915Z,13.00
2019-04-19T10:58:01.125Z,13.20
2019-04-19T11:00:33.371Z,13.40
2019-04-19T11:03:05.224Z,13.32
2019-04-19T11:05:39.032Z,13.01
2019-04-19T11:08:09.908Z,12.99
2019-04-19T11:10:41.006Z,13.02
2019-04-19T11:13:12.823Z,12.76
2019-04-19T11:15:44.553Z,12.59
2019-04-19T11:18:15.681Z,12.55
2019-04-19T11:20:49.598Z,12.25
2019-04-19T11:23:19.784Z,12.29
2019-04-19T11:25:52.128Z,12.41
2019-04-19T11:28:22.908Z,12.43
2019-04-19T11:31:02.916Z,12.23
2019-04-19T11:33:34.954Z,11.85
2019-04-19T11:36:05.992Z,11.98
2019-04-19T11:38:36.930Z,11.98
2019-04-19T11:41:11.211Z,11.46
2019-04-19T11:43:43.255Z,11.24
2019-04-19T11:46:16.068Z,11.28
2019-04-19T11:48:49.890Z,11.18
2019-04-19T11:51:21.591Z,11.15
2019-04-19T11:53:52.490Z,10.95
2019-04-19T11:56:46.006Z,10.94
2019-04-19T11:59:36.995Z,10.81
2019-04-19T12:02:10.235Z,10.54
2019-04-19T12:04:42.009Z,10.49
2019-04-19T12:07:12.963Z,10.54
2019-04-19T12:09:44.787Z,10.59
2019-04-19T12:12:16.989Z,10.50
2019-04-19T12:14:48.559Z,10.57
2019-04-19T12:17:19.490Z,10.73
2019-04-19T12:19:56.070Z,10.75
2019-04-19T12:22:27.516Z,10.88
2019-04-19T12:24:59.457Z,11.12
2019-04-19T12:27:31.741Z,11.14
2019-04-19T12:30:05.440Z,11.18
2019-04-19T12:32:43.588Z,11.30
2019-04-19T12:35:14.443Z,11.55
2019-04-19T12:37:45.047Z,11.54
2019-04-19T12:40:17.059Z,11.24
2019-04-19T12:42:48.256Z,11.62
2019-04-19T12:45:19.877Z,11.95
2019-04-19T12:47:51.158Z,12.07
2019-04-19T12:50:23.852Z,12.16
2019-04-19T12:52:55.841Z,12.21
2019-04-19T12:55:30.204Z,12.15
2019-04-19T12:58:04.048Z,12.08
2019-04-19T13:01:03.826Z,11.80
2019-04-19T13:03:52.567Z,11.72
2019-04-19T13:06:27.424Z,11.67
2019-04-19T13:08:59.239Z,11.25
2019-04-19T13:11:29.749Z,11.42
2019-04-19T13:14:01.708Z,11.32
2019-04-19T13:16:32.815Z,11.41
2019-04-19T13:19:03.785Z,11.36
2019-04-19T13:21:36.366Z,11.31
2019-04-19T13:24:08.669Z,11.33
2019-04-19T13:26:41.561Z,11.38
2019-04-19T13:29:13.328Z,11.38
2019-04-19T13:31:44.979Z,11.53
2019-04-19T13:34:16.849Z,11.82
2019-04-19T13:37:18.934Z,11.68
2019-04-19T13:40:12.315Z,11.71
2019-04-19T13:42:44.767Z,11.97
2019-04-19T13:45:23.498Z,12.22
2019-04-19T13:47:48.916Z,12.23
2019-04-19T13:50:28.259Z,12.20
2019-04-19T13:52:52.904Z,12.33
2019-04-19T13:55:24.452Z,12.26
2019-04-19T13:57:55.676Z,12.12
2019-04-19T14:00:42.636Z,11.80
2019-04-19T14:03:13.817Z,12.10
2019-04-19T14:05:45.786Z,12.18
2019-04-19T14:08:17.401Z,12.25
2019-04-19T14:10:50.907Z,12.17
2019-04-19T14:13:23.147Z,11.95
2019-04-19T14:15:53.974Z,11.82
2019-04-19T14:18:25.030Z,11.77
2019-04-19T14:20:57.517Z,11.77
2019-04-19T14:23:28.498Z,11.85
2019-04-19T14:25:59.362Z,11.86
2019-04-19T14:28:29.873Z,11.72
2019-04-19T14:31:03.221Z,11.60
2019-04-19T14:33:34.849Z,11.49
2019-04-19T14:36:06.223Z,11.41
2019-04-19T14:38:39.465Z,11.50
2019-04-19T14:41:11.523Z,11.50
2019-04-19T14:43:42.766Z,11.49
2019-04-19T14:46:14.386Z,11.47
2019-04-19T14:48:45.353Z,11.21
2019-04-19T14:51:22.265Z,10.92
2019-04-19T14:53:49.804Z,10.92
2019-04-19T14:56:21.728Z,10.84
2019-04-19T14:58:52.673Z,10.86
2019-04-19T15:01:45.204Z,10.77
2019-04-19T15:04:30.886Z,10.61
2019-04-19T15:07:01.979Z,10.64
2019-04-19T15:09:33.318Z,10.60
2019-04-19T15:12:04.642Z,10.51
2019-04-19T15:14:36.778Z,10.34
2019-04-19T15:17:07.806Z,10.34
2019-04-19T15:19:39.691Z,10.27
2019-04-19T15:22:12.386Z,10.22
2019-04-19T15:24:44.561Z,10.14
2019-04-19T15:27:16.981Z,10.05
2019-04-19T15:29:49.956Z,9.92
2019-04-19T15:32:22.202Z,9.84
2019-04-19T15:34:53.803Z,9.83
2019-04-19T15:37:25.603Z,9.73
2019-04-19T15:39:56.440Z,9.74
2019-04-19T15:42:27.209Z,9.60
2019-04-19T15:44:58.670Z,9.60
2019-04-19T15:47:30.708Z,9.67
2019-04-19T15:50:02.374Z,9.69
2019-04-19T15:52:33.266Z,9.69
2019-04-19T15:55:04.366Z,9.69
2019-04-19T15:57:36.262Z,9.67
2019-04-19T16:00:14.077Z,9.59
2019-04-19T16:03:00.083Z,9.54
2019-04-19T16:05:56.049Z,9.70
2019-04-19T16:08:59.044Z,9.70
2019-04-19T16:11:49.059Z,9.68
2019-04-19T16:14:21.786Z,9.68
2019-04-19T16:16:53.436Z,9.75
2019-04-19T16:19:26.553Z,9.75
2019-04-19T16:22:00.591Z,9.77
2019-04-19T16:24:31.393Z,9.80
2019-04-19T16:27:02.697Z,9.80
2019-04-19T16:29:42.234Z,9.80
2019-04-19T16:32:07.094Z,9.75
2019-04-19T16:34:38.786Z,9.78
2019-04-19T16:37:10.392Z,9.59
2019-04-19T16:39:41.961Z,9.56
2019-04-19T16:42:13.277Z,9.61
2019-04-19T16:44:44.212Z,9.64
2019-04-19T16:47:15.417Z,9.61
2019-04-19T16:49:46.824Z,9.61
2019-04-19T16:52:18.586Z,9.63
2019-04-19T16:54:50.234Z,9.60
2019-04-19T16:57:26.797Z,9.62
2019-04-19T16:59:55.676Z,9.49
2019-04-19T17:02:26.946Z,9.38
2019-04-19T17:04:58.818Z,9.34
2019-04-19T17:07:30.286Z,9.29
2019-04-19T17:10:01.849Z,9.29
2019-04-19T17:12:33.361Z,9.12
2019-04-19T17:15:23.327Z,8.99
2019-04-19T17:18:08.824Z,8.99
2019-04-19T17:20:55.604Z,9.03
2019-04-19T17:23:34.992Z,9.10
2019-04-19T17:26:20.097Z,9.08
2019-04-19T17:28:52.900Z,9.02
2019-04-19T17:31:24.444Z,9.02
2019-04-19T17:33:56.174Z,9.14
2019-04-19T17:36:28.318Z,9.14
2019-04-19T17:39:00.177Z,9.05
2019-04-19T17:41:32.366Z,9.13
2019-04-19T17:44:23.840Z,9.09
2019-04-19T17:46:56.298Z,8.97
2019-04-19T17:49:28.679Z,9.02
2019-04-19T17:52:09.361Z,9.01
2019-04-19T17:54:50.119Z,9.00
2019-04-19T17:57:05.221Z,9.00
2019-04-19T17:59:36.477Z,8.98
2019-04-19T18:02:07.707Z,8.98
2019-04-19T18:04:38.407Z,9.06
2019-04-19T18:07:09.752Z,8.95
2019-04-19T18:09:48.527Z,8.94
2019-04-19T18:12:13.935Z,8.94
2019-04-19T18:14:45.729Z,8.85
2019-04-19T18:17:17.008Z,8.76
2019-04-19T18:19:48.592Z,8.61
2019-04-19T18:22:34.385Z,8.54
2019-04-19T18:24:58.252Z,8.50
2019-04-19T18:27:27.798Z,8.43
2019-04-19T18:30:03.317Z,8.35
2019-04-19T18:32:36.377Z,8.35
2019-04-19T18:35:15.049Z,8.28
2019-04-19T18:37:44.037Z,8.23
2019-04-19T18:40:13.216Z,8.10
2019-04-19T18:42:51.087Z,7.98
2019-04-19T18:45:23.635Z,7.81
2019-04-19T18:47:50.747Z,7.79
2019-04-19T18:50:28.501Z,7.72
2019-04-19T18:53:11.878Z,7.56
2019-04-19T18:55:38.405Z,7.57
2019-04-19T18:58:06.582Z,7.49
2019-04-19T19:00:44.542Z,7.43
2019-04-19T19:03:11.995Z,7.38
2019-04-19T19:05:47.882Z,7.38
2019-04-19T19:08:24.135Z,7.38
2019-04-19T19:10:52.336Z,7.43
2019-04-19T19:13:25.681Z,7.38
2019-04-19T19:15:57.700Z,7.41
2019-04-19T19:18:35.023Z,7.40
2019-04-19T19:21:04.563Z,7.41
2019-04-19T19:23:49.664Z,7.42
2019-04-19T19:26:19.385Z,7.48
2019-04-19T19:28:40.627Z,7.42
2019-04-19T19:31:11.938Z,7.47
2019-04-19T19:33:45.064Z,7.45
2019-04-19T19:36:21.493Z,7.45
2019-04-19T19:38:57.966Z,7.50
2019-04-19T19:42:14.272Z,7.41
2019-04-19T19:44:06.505Z,7.44
2019-04-19T19:47:07.201Z,7.49
2019-04-19T19:49:38.502Z,7.57
2019-04-19T19:51:47.795Z,7.61
2019-04-19T19:54:43.356Z,7.67
2019-04-19T19:57:02.951Z,7.69
2019-04-19T19:59:24.996Z,7.63
2019-04-19T20:01:58.642Z,7.57
2019-04-19T20:04:21.509Z,7.61
2019-04-19T20:07:00.159Z,7.69
2019-04-19T20:09:29.059Z,7.78
2019-04-19T20:12:03.981Z,7.85
2019-04-19T20:14:33.654Z,7.97
2019-04-19T20:17:07.945Z,8.03
2019-04-19T20:19:37.429Z,8.01
2019-04-19T20:22:09.263Z,8.03
2019-04-19T20:24:52.666Z,8.06
2019-04-19T20:27:19.080Z,8.03
2019-04-19T20:29:51.988Z,7.97
2019-04-19T20:32:22.168Z,7.85
2019-04-19T20:34:51.923Z,7.80
2019-04-19T20:37:25.101Z,7.80
2019-04-19T20:40:01.485Z,7.80
2019-04-19T20:42:45.880Z,7.81
2019-04-19T20:45:07.087Z,7.80
2019-04-19T20:47:33.559Z,7.74
2019-04-19T20:50:18.817Z,7.73
2019-04-19T20:52:52.783Z,7.71
2019-04-19T20:55:32.631Z,7.66
2019-04-19T20:58:24.274Z,7.54
2019-04-19T21:00:48.478Z,7.52
2019-04-19T21:03:30.372Z,7.44
2019-04-19T21:05:58.083Z,7.38
2019-04-19T21:08:30.276Z,7.36
2019-04-19T21:11:04.658Z,7.34
2019-04-19T21:13:38.168Z,7.24
2019-04-19T21:16:06.681Z,7.24
2019-04-19T21:18:39.037Z,7.23
2019-04-19T21:21:15.862Z,7.22
2019-04-19T21:23:52.169Z,7.18
2019-04-19T21:26:25.352Z,7.21
2019-04-19T21:28:52.634Z,7.20
2019-04-19T21:31:23.791Z,7.16
2019-04-19T21:33:59.863Z,7.14
2019-04-19T21:36:36.976Z,7.08
2019-04-19T21:39:09.514Z,7.04
2019-04-19T21:42:00.217Z,7.05
2019-04-19T21:44:30.602Z,7.07
2019-04-19T21:47:04.945Z,7.07
2019-04-19T21:49:34.923Z,7.08
2019-04-19T21:52:14.035Z,7.04
2019-04-19T21:54:38.849Z,6.97
2019-04-19T21:57:10.824Z,6.96
2019-04-19T21:59:42.579Z,6.97
2019-04-19T22:02:25.695Z,6.97
2019-04-19T22:04:51.236Z,6.94
2019-04-19T22:07:21.271Z,6.91
2019-04-19T22:09:58.045Z,6.88
2019-04-19T22:12:24.660Z,6.81
2019-04-19T22:15:01.615Z,6.77
2019-04-19T22:17:30.066Z,6.74
2019-04-19T22:20:07.971Z,6.66
2019-04-19T22:22:37.289Z,6.66
2019-04-19T22:25:14.283Z,6.63
2019-04-19T22:27:41.913Z,6.53
2019-04-19T22:30:13.703Z,6.49
2019-04-19T22:32:51.298Z,6.38
2019-04-19T22:35:22.641Z,6.25
2019-04-19T22:37:52.604Z,6.23
2019-04-19T22:40:24.733Z,6.24
2019-04-19T22:43:01.608Z,6.29
2019-04-19T22:45:28.719Z,6.35
2019-04-19T22:48:12.832Z,6.38
2019-04-19T22:50:40.127Z,6.40
2019-04-19T22:53:10.571Z,6.40
2019-04-19T22:55:47.232Z,6.41
2019-04-19T22:58:21.244Z,6.42
2019-04-19T23:00:47.639Z,6.36
2019-04-19T23:03:34.085Z,6.29
2019-04-19T23:06:03.643Z,6.34
2019-04-19T23:08:39.457Z,6.29
2019-04-19T23:11:10.959Z,6.37
2019-04-19T23:13:43.280Z,6.47
2019-04-19T23:16:15.348Z,6.55
2019-04-19T23:18:56.870Z,6.68
2019-04-19T23:21:22.908Z,6.78
2019-04-19T23:23:51.450Z,6.83
2019-04-19T23:26:45.764Z,6.87
2019-04-19T23:28:54.954Z,6.83
2019-04-19T23:31:26.493Z,6.84
2019-04-19T23:34:01.639Z,6.81
2019-04-19T23:36:31.183Z,6.78
2019-04-19T23:39:06.141Z,6.81
2019-04-19T23:41:35.246Z,6.85
2019-04-19T23:44:11.193Z,6.82
2019-04-19T23:46:39.206Z,6.77
2019-04-19T23:49:13.508Z,6.81
2019-04-19T23:51:43.229Z,6.81
2019-04-19T23:54:21.894Z,6.78
2019-04-19T23:56:59.056Z,6.78
2019-04-19T23:59:24.423Z,6.79
